Aérodrome :
LOGIN :

S'inscrire | Disclaimer

   EN    FR    IT 

 










Légende :    VFR   VFR Marginal   IFR   IFR Intensif   IFR Très Intensif
Visi : 
Plafond : 
>= 8 km
>= 3000ft
5 à 8 km
1000 à 3000 ft
1500m à 5 km
500 à 1000 ft
800 à 1500m
200 à 500 ft
< 800m
< 200 ft
Symboles :   Orages  Brouillard  Fortes neiges  Fortes précipitations  Vent > 20 kt
SIGMETs :   Divers  Orages  Givrage  Turbulence  Onde Orograph.  Cendres Volcan.







- Altitude de l'aérodrome : 1273 ft
- Code IATA : LJU


LJLJ - Ljubljana

DERNIER METAR :
  • 220630Z 11011KT 9999 -SN FEW017 SCT045 BKN080 00/M02 Q1010 R30/CLRD// NOSIG

METARs EXPIRÉS :
  • 220600Z 11010KT 9999 -SN FEW017 SCT045 BKN080 00/M02 Q1010 R30/CLRD// NOSIG
  • 220530Z 11010KT 9999 -SN FEW040 SCT070 BKN085 00/M02 Q1009 R30/CLRD// NOSIG
  • 220500Z VRB04KT 9999 -SN FEW040 BKN070 00/M02 Q1009 R30/CLRD// NOSIG

TAF TAF LJLJ
Valide du 22 à 06h jusqu'au 23 à 06h UTC


220500Z 2206/2306 12005KT 9999 BKN045 OVC080
TEMPO 2206/2306 12010KT 7000 -SN SCT015 BKN030 OVC060
Pas de NOTAMs connus pour ce terrain.
1 SIGMET publié pour la FIR Ljubljana (LJLA) :
 
Turbulence forte
LJLA SIGMET 1 VALID 220430/220800 LJLJ
LJLA LJUBLJANA FIR SEV TURB FCST SW OF LINE N4536 E01431 - N4606 E01335 SFC/6000FT STNR NC=



MET'MAP, la Météo Aéronautique d'un coup d'oeil ! - Copyright ORBIFLY Décembre 2007 - Disclaimer

ORBIFLY MET'MAP TEAM :

Programmation & Développement : Alexandra Zaïnal
Conception & Développement : Baudouin d'Aumeries
Co-Programmation & Développement : Marc-Olivier Méhu
Soutien technique & logistique : Manuel Goepfert

Contact : metmap@orbifly.com




SOURCES & CREDITS :

   NOAA